createdAt,value
2018-06-25T00:00:43.887Z,16.86
2018-06-25T00:01:43.868Z,16.98
2018-06-25T00:02:43.852Z,16.81
2018-06-25T00:03:43.834Z,16.88
2018-06-25T00:04:43.815Z,16.93
2018-06-25T00:05:43.797Z,16.88
2018-06-25T00:06:43.777Z,16.88
2018-06-25T00:07:43.760Z,16.95
2018-06-25T00:08:43.741Z,16.92
2018-06-25T00:09:43.733Z,16.92
2018-06-25T00:10:43.707Z,16.78
2018-06-25T00:11:43.703Z,16.80
2018-06-25T00:12:43.670Z,16.90
2018-06-25T00:13:43.650Z,16.78
2018-06-25T00:14:43.633Z,16.78
2018-06-25T00:15:43.615Z,16.78
2018-06-25T00:16:43.596Z,16.75
2018-06-25T00:17:43.585Z,16.78
2018-06-25T00:18:43.563Z,16.70
2018-06-25T00:19:43.546Z,16.73
2018-06-25T00:20:43.523Z,16.73
2018-06-25T00:21:43.505Z,16.73
2018-06-25T00:22:43.488Z,16.68
2018-06-25T00:23:43.469Z,16.60
2018-06-25T00:24:43.451Z,16.55
2018-06-25T00:25:43.433Z,16.58
2018-06-25T00:26:43.415Z,16.63
2018-06-25T00:27:43.396Z,16.68
2018-06-25T00:28:43.377Z,16.63
2018-06-25T00:29:43.359Z,16.62
2018-06-25T00:30:43.341Z,16.60
2018-06-25T00:31:43.323Z,16.60
2018-06-25T00:32:43.304Z,16.58
2018-06-25T00:33:43.286Z,16.65
2018-06-25T00:34:43.418Z,16.63
2018-06-25T00:35:43.249Z,16.67
2018-06-25T00:36:43.238Z,16.65
2018-06-25T00:37:43.213Z,16.60
2018-06-25T00:38:43.194Z,16.58
2018-06-25T00:39:43.177Z,16.62
2018-06-25T00:40:43.157Z,16.56
2018-06-25T00:41:43.141Z,16.60
2018-06-25T00:42:43.120Z,16.60
2018-06-25T00:43:43.104Z,16.68
2018-06-25T00:44:43.096Z,16.62
2018-06-25T00:45:43.065Z,16.58
2018-06-25T00:46:43.048Z,16.60
2018-06-25T00:47:43.029Z,16.60
2018-06-25T00:48:43.011Z,16.59
2018-06-25T00:49:42.992Z,16.60
2018-06-25T00:50:42.974Z,16.62
2018-06-25T00:51:43.708Z,16.58
2018-06-25T00:52:42.937Z,16.60
2018-06-25T00:53:42.919Z,16.63
2018-06-25T00:54:42.900Z,16.63
2018-06-25T00:55:42.882Z,16.56
2018-06-25T00:56:42.863Z,16.52
2018-06-25T00:57:42.846Z,16.56
2018-06-25T00:58:42.826Z,16.53
2018-06-25T00:59:42.809Z,16.55
2018-06-25T01:00:42.790Z,16.55
2018-06-25T01:01:42.772Z,16.52
2018-06-25T01:02:42.754Z,16.58
2018-06-25T01:03:42.736Z,16.58
2018-06-25T01:04:42.717Z,16.53
2018-06-25T01:05:42.699Z,16.45
2018-06-25T01:06:42.680Z,16.44
2018-06-25T01:07:42.661Z,16.42
2018-06-25T01:08:42.644Z,16.48
2018-06-25T01:09:42.626Z,16.44
2018-06-25T01:10:42.607Z,16.34
2018-06-25T01:11:42.589Z,16.35
2018-06-25T01:12:42.570Z,16.31
2018-06-25T01:13:42.553Z,16.37
2018-06-25T01:14:42.534Z,16.37
2018-06-25T01:15:42.516Z,16.40
2018-06-25T01:16:42.497Z,16.35
2018-06-25T01:17:42.477Z,16.26
2018-06-25T01:18:43.210Z,16.35
2018-06-25T01:19:42.444Z,16.30
2018-06-25T01:20:42.421Z,16.37
2018-06-25T01:21:42.405Z,16.33
2018-06-25T01:22:42.385Z,16.33
2018-06-25T01:23:42.367Z,16.34
2018-06-25T01:24:42.348Z,16.27
2018-06-25T01:25:42.329Z,16.35
2018-06-25T01:26:42.316Z,16.33
2018-06-25T01:27:42.293Z,16.30
2018-06-25T01:28:42.324Z,16.22
2018-06-25T01:29:42.257Z,16.26
2018-06-25T01:30:42.239Z,16.31
2018-06-25T01:31:42.220Z,16.26
2018-06-25T01:32:42.203Z,16.37
2018-06-25T01:33:42.188Z,16.37
2018-06-25T01:34:42.163Z,16.33
2018-06-25T01:35:42.145Z,16.31
2018-06-25T01:36:42.126Z,16.33
2018-06-25T01:37:42.107Z,16.34
2018-06-25T01:38:42.090Z,16.33
2018-06-25T01:39:42.071Z,16.30
2018-06-25T01:40:42.053Z,16.30
2018-06-25T01:41:42.033Z,16.31
2018-06-25T01:42:42.015Z,16.41
2018-06-25T01:43:41.996Z,16.38
2018-06-25T01:44:41.980Z,16.33
2018-06-25T01:45:41.961Z,16.35
2018-06-25T01:46:41.942Z,16.31
2018-06-25T01:47:41.924Z,16.31
2018-06-25T01:48:41.904Z,16.34
2018-06-25T01:49:41.887Z,16.31
2018-06-25T01:50:41.867Z,16.34
2018-06-25T01:51:41.849Z,16.38
2018-06-25T01:52:41.829Z,16.40
2018-06-25T01:53:41.812Z,16.30
2018-06-25T01:54:41.792Z,16.27
2018-06-25T01:55:42.525Z,16.31
2018-06-25T01:56:41.756Z,16.33
2018-06-25T01:57:41.737Z,16.34
2018-06-25T01:58:41.719Z,16.33
2018-06-25T01:59:41.700Z,16.33
2018-06-25T02:00:41.684Z,16.35
2018-06-25T02:01:41.663Z,16.33
2018-06-25T02:02:41.646Z,16.37
2018-06-25T02:03:41.626Z,16.33
2018-06-25T02:04:41.608Z,16.31
2018-06-25T02:05:41.590Z,16.30
2018-06-25T02:06:41.572Z,16.27
2018-06-25T02:07:41.552Z,16.30
2018-06-25T02:08:41.533Z,16.31
2018-06-25T02:09:41.516Z,16.25
2018-06-25T02:10:41.499Z,16.34
2018-06-25T02:11:41.483Z,16.34
2018-06-25T02:12:41.461Z,16.25
2018-06-25T02:13:41.442Z,16.31
2018-06-25T02:14:41.422Z,16.30
2018-06-25T02:15:41.405Z,16.26
2018-06-25T02:16:41.385Z,16.23
2018-06-25T02:17:41.367Z,16.31
2018-06-25T02:18:41.349Z,16.25
2018-06-25T02:19:41.331Z,16.33
2018-06-25T02:20:41.311Z,16.18
2018-06-25T02:21:41.293Z,16.23
2018-06-25T02:22:41.275Z,16.18
2018-06-25T02:23:41.256Z,16.25
2018-06-25T02:24:41.242Z,16.25
2018-06-25T02:25:41.220Z,16.23
2018-06-25T02:26:41.200Z,16.23
2018-06-25T02:27:41.182Z,16.18
2018-06-25T02:28:41.162Z,16.20
2018-06-25T02:29:41.145Z,16.16
2018-06-25T02:30:41.129Z,16.23
2018-06-25T02:31:41.108Z,16.16
2018-06-25T02:32:41.089Z,16.22
2018-06-25T02:33:41.070Z,16.18
2018-06-25T02:34:41.054Z,16.16
2018-06-25T02:35:41.036Z,16.15
2018-06-25T02:36:41.015Z,16.14
2018-06-25T02:37:40.997Z,16.20
2018-06-25T02:38:41.001Z,16.20
2018-06-25T02:39:40.959Z,16.12
2018-06-25T02:40:40.940Z,16.14
2018-06-25T02:41:40.923Z,16.12
2018-06-25T02:42:40.907Z,16.23
2018-06-25T02:43:40.889Z,16.25
2018-06-25T02:44:40.867Z,16.16
2018-06-25T02:45:40.847Z,16.06
2018-06-25T02:46:40.837Z,16.20
2018-06-25T02:47:40.812Z,16.14
2018-06-25T02:48:40.792Z,16.11
2018-06-25T02:49:40.774Z,16.03
2018-06-25T02:50:40.761Z,16.20
2018-06-25T02:51:40.738Z,16.18
2018-06-25T02:52:40.719Z,16.16
2018-06-25T02:53:40.704Z,16.20
2018-06-25T02:54:40.682Z,16.20
2018-06-25T02:55:40.664Z,16.20
2018-06-25T02:56:40.645Z,16.03
2018-06-25T02:57:40.629Z,16.14
2018-06-25T02:58:40.607Z,16.07
2018-06-25T02:59:40.589Z,16.03
2018-06-25T03:00:40.571Z,16.00
2018-06-25T03:01:40.551Z,16.03
2018-06-25T03:02:40.533Z,16.01
2018-06-25T03:03:40.517Z,16.00
2018-06-25T03:04:40.495Z,16.00
2018-06-25T03:05:40.478Z,15.96
2018-06-25T03:06:40.458Z,16.01
2018-06-25T03:07:40.440Z,15.97
2018-06-25T03:08:40.421Z,15.96
2018-06-25T03:09:40.402Z,16.00
2018-06-25T03:10:40.384Z,15.93
2018-06-25T03:11:40.366Z,16.01
2018-06-25T03:12:40.346Z,15.99
2018-06-25T03:13:40.327Z,15.97
2018-06-25T03:14:40.311Z,15.94
2018-06-25T03:15:40.291Z,16.00
2018-06-25T03:16:40.272Z,15.97
2018-06-25T03:17:40.253Z,15.96
2018-06-25T03:18:40.238Z,15.97
2018-06-25T03:19:40.218Z,15.92
2018-06-25T03:20:40.198Z,16.01
2018-06-25T03:21:40.182Z,16.00
2018-06-25T03:22:40.161Z,16.01
2018-06-25T03:23:40.142Z,16.06
2018-06-25T03:24:40.124Z,16.06
2018-06-25T03:25:40.104Z,16.01
2018-06-25T03:26:40.088Z,16.00
2018-06-25T03:27:40.068Z,16.00
2018-06-25T03:28:40.048Z,16.01
2018-06-25T03:29:40.031Z,16.01
2018-06-25T03:30:40.012Z,16.04
2018-06-25T03:31:39.993Z,16.03
2018-06-25T03:32:39.974Z,16.04
2018-06-25T03:33:39.957Z,16.01
2018-06-25T03:34:39.937Z,15.96
2018-06-25T03:35:39.920Z,16.06
2018-06-25T03:36:39.905Z,16.00
2018-06-25T03:37:39.881Z,16.03
2018-06-25T03:38:39.864Z,16.04
2018-06-25T03:39:39.846Z,15.94
2018-06-25T03:40:39.824Z,16.01
2018-06-25T03:41:39.806Z,15.92
2018-06-25T03:42:39.788Z,15.94
2018-06-25T03:43:39.770Z,15.93
2018-06-25T03:44:39.750Z,15.93
2018-06-25T03:45:39.732Z,15.93
2018-06-25T03:46:39.715Z,15.96
2018-06-25T03:47:39.695Z,15.93
2018-06-25T03:48:39.680Z,15.94
2018-06-25T03:49:39.660Z,15.93
2018-06-25T03:50:39.639Z,15.86
2018-06-25T03:51:39.620Z,15.94
2018-06-25T03:52:39.602Z,15.96
2018-06-25T03:53:39.581Z,15.94
2018-06-25T03:54:39.564Z,15.85
2018-06-25T03:55:39.545Z,15.88
2018-06-25T03:56:39.526Z,15.82
2018-06-25T03:57:39.510Z,15.93
2018-06-25T03:58:39.487Z,15.81
2018-06-25T03:59:39.469Z,15.88
2018-06-25T04:00:39.455Z,15.85
2018-06-25T04:01:39.432Z,15.89
2018-06-25T04:02:39.412Z,15.96
2018-06-25T04:03:40.145Z,15.78
2018-06-25T04:04:39.376Z,15.89
2018-06-25T04:05:39.359Z,15.88
2018-06-25T04:06:39.338Z,15.82
2018-06-25T04:07:39.322Z,15.82
2018-06-25T04:08:39.299Z,15.78
2018-06-25T04:09:39.283Z,15.82
2018-06-25T04:10:39.261Z,15.68
2018-06-25T04:11:39.244Z,15.72
2018-06-25T04:12:39.223Z,15.70
2018-06-25T04:13:39.205Z,15.72
2018-06-25T04:14:39.186Z,15.72
2018-06-25T04:15:39.170Z,15.74
2018-06-25T04:16:39.148Z,15.74
2018-06-25T04:17:39.131Z,15.75
2018-06-25T04:18:39.111Z,15.74
2018-06-25T04:19:39.091Z,15.72
2018-06-25T04:20:39.106Z,15.75
2018-06-25T04:21:39.053Z,15.82
2018-06-25T04:22:39.034Z,15.76
2018-06-25T04:23:39.048Z,15.85
2018-06-25T04:24:38.997Z,15.85
2018-06-25T04:25:38.978Z,15.93
2018-06-25T04:26:38.959Z,15.89
2018-06-25T04:27:38.942Z,15.86
2018-06-25T04:28:38.920Z,15.92
2018-06-25T04:29:38.902Z,15.84
2018-06-25T04:30:38.942Z,15.97
2018-06-25T04:31:38.865Z,15.92
2018-06-25T04:32:38.844Z,16.00
2018-06-25T04:33:38.825Z,16.03
2018-06-25T04:34:38.807Z,16.01
2018-06-25T04:35:38.789Z,16.00
2018-06-25T04:36:38.769Z,16.04
2018-06-25T04:37:38.750Z,16.06
2018-06-25T04:38:38.733Z,16.03
2018-06-25T04:39:38.712Z,16.07
2018-06-25T04:40:39.445Z,16.16
2018-06-25T04:41:38.675Z,16.15
2018-06-25T04:42:38.657Z,16.25
2018-06-25T04:43:38.638Z,16.20
2018-06-25T04:44:38.618Z,16.23
2018-06-25T04:45:38.600Z,16.33
2018-06-25T04:46:38.582Z,16.30
2018-06-25T04:47:38.563Z,16.31
2018-06-25T04:48:38.544Z,16.31
2018-06-25T04:49:38.525Z,16.34
2018-06-25T04:50:38.584Z,16.26
2018-06-25T04:51:38.489Z,16.35
2018-06-25T04:52:38.472Z,16.31
2018-06-25T04:53:38.451Z,16.41
2018-06-25T04:54:38.433Z,16.41
2018-06-25T04:55:38.417Z,16.50
2018-06-25T04:56:38.394Z,16.58
2018-06-25T04:57:38.377Z,16.41
2018-06-25T04:58:38.358Z,16.44
2018-06-25T04:59:38.340Z,16.40
2018-06-25T05:00:38.320Z,16.40
2018-06-25T05:01:38.302Z,16.41
2018-06-25T05:02:38.287Z,16.48
2018-06-25T05:03:38.266Z,16.42
2018-06-25T05:04:38.248Z,16.45
2018-06-25T05:05:38.229Z,16.42
2018-06-25T05:06:38.210Z,16.44
2018-06-25T05:07:38.193Z,16.53
2018-06-25T05:08:38.172Z,16.55
2018-06-25T05:09:38.154Z,16.65
2018-06-25T05:10:38.138Z,16.65
2018-06-25T05:11:38.119Z,16.62
2018-06-25T05:12:38.100Z,16.65
2018-06-25T05:13:38.081Z,16.67
2018-06-25T05:14:38.064Z,16.65
2018-06-25T05:15:38.046Z,16.59
2018-06-25T05:16:39.529Z,16.62
2018-06-25T05:17:38.008Z,16.65
2018-06-25T05:18:37.991Z,16.53
2018-06-25T05:19:37.972Z,16.60
2018-06-25T05:20:37.954Z,16.60
2018-06-25T05:21:37.938Z,16.55
2018-06-25T05:22:38.670Z,16.49
2018-06-25T05:23:37.917Z,16.56
2018-06-25T05:24:37.879Z,16.53
2018-06-25T05:25:37.861Z,16.48
2018-06-25T05:26:37.844Z,16.41
2018-06-25T05:27:37.825Z,16.40
2018-06-25T05:28:37.807Z,16.45
2018-06-25T05:29:37.789Z,16.45
2018-06-25T05:30:37.771Z,16.38
2018-06-25T05:31:37.757Z,16.49
2018-06-25T05:32:37.733Z,16.45
2018-06-25T05:33:37.715Z,16.45
2018-06-25T05:34:37.696Z,16.55
2018-06-25T05:35:37.679Z,16.53
2018-06-25T05:36:37.660Z,16.55
2018-06-25T05:37:37.641Z,16.56
2018-06-25T05:38:37.623Z,16.56
2018-06-25T05:39:37.621Z,16.63
2018-06-25T05:40:37.588Z,16.67
2018-06-25T05:41:37.569Z,16.67
2018-06-25T05:42:37.554Z,16.68
2018-06-25T05:43:38.283Z,16.74
2018-06-25T05:44:37.513Z,16.81
2018-06-25T05:45:37.496Z,16.92
2018-06-25T05:46:37.478Z,17.00
2018-06-25T05:47:37.459Z,16.93
2018-06-25T05:48:37.440Z,16.93
2018-06-25T05:49:37.423Z,16.90
2018-06-25T05:50:37.405Z,16.96
2018-06-25T05:51:37.387Z,16.96
2018-06-25T05:52:37.367Z,16.99
2018-06-25T05:53:37.351Z,17.04
2018-06-25T05:54:37.333Z,16.98
2018-06-25T05:55:37.314Z,16.90
2018-06-25T05:56:37.295Z,16.93
2018-06-25T05:57:37.277Z,16.89
2018-06-25T05:58:37.261Z,16.85
2018-06-25T05:59:37.243Z,16.93
2018-06-25T06:00:37.229Z,16.92
2018-06-25T06:01:37.208Z,16.92
2018-06-25T06:02:37.189Z,16.93
2018-06-25T06:03:37.171Z,16.98
2018-06-25T06:04:37.152Z,16.92
2018-06-25T06:05:37.135Z,17.03
2018-06-25T06:06:37.117Z,17.04
2018-06-25T06:07:37.099Z,16.99
2018-06-25T06:08:37.080Z,16.90
2018-06-25T06:09:37.063Z,17.00
2018-06-25T06:10:37.045Z,17.06
2018-06-25T06:11:37.027Z,17.08
2018-06-25T06:12:37.010Z,17.10
2018-06-25T06:13:36.991Z,17.14
2018-06-25T06:14:36.974Z,17.14
2018-06-25T06:15:36.956Z,17.11
2018-06-25T06:16:36.940Z,17.06
2018-06-25T06:17:36.921Z,16.96
2018-06-25T06:18:36.903Z,16.98
2018-06-25T06:19:36.885Z,16.92
2018-06-25T06:20:36.867Z,16.95
2018-06-25T06:21:36.849Z,16.86
2018-06-25T06:22:36.832Z,16.92
2018-06-25T06:23:36.815Z,16.98
2018-06-25T06:24:36.796Z,16.96
2018-06-25T06:25:36.779Z,17.00
2018-06-25T06:26:37.513Z,17.07
2018-06-25T06:27:36.745Z,17.03
2018-06-25T06:28:36.725Z,16.89
2018-06-25T06:29:36.707Z,16.95
2018-06-25T06:30:36.690Z,16.99
2018-06-25T06:31:36.673Z,17.00
2018-06-25T06:32:36.654Z,17.11
2018-06-25T06:33:36.637Z,17.06
2018-06-25T06:34:36.619Z,17.06
2018-06-25T06:35:36.604Z,17.10
2018-06-25T06:36:36.583Z,17.06
2018-06-25T06:37:37.319Z,17.03
2018-06-25T06:38:36.550Z,17.07
2018-06-25T06:39:36.533Z,17.06
2018-06-25T06:40:36.515Z,17.04
2018-06-25T06:41:36.497Z,17.03
2018-06-25T06:42:36.490Z,16.93
2018-06-25T06:43:36.472Z,16.95
2018-06-25T06:44:36.443Z,16.95
2018-06-25T06:45:36.427Z,16.86
2018-06-25T06:46:36.409Z,16.77
2018-06-25T06:47:36.391Z,16.73
2018-06-25T06:48:37.874Z,16.65
2018-06-25T06:49:36.355Z,16.77
2018-06-25T06:50:36.338Z,16.81
2018-06-25T06:51:36.321Z,16.77
2018-06-25T06:52:36.302Z,16.67
2018-06-25T06:53:36.284Z,16.85
2018-06-25T06:54:37.770Z,16.95
2018-06-25T06:55:36.251Z,17.06
2018-06-25T06:56:36.232Z,17.04
2018-06-25T06:57:36.268Z,16.98
2018-06-25T06:58:36.198Z,17.08
2018-06-25T06:59:36.179Z,17.03
2018-06-25T07:00:36.161Z,17.00
2018-06-25T07:01:36.144Z,16.99
2018-06-25T07:02:36.127Z,17.18
2018-06-25T07:03:36.109Z,17.15
2018-06-25T07:04:36.091Z,17.20
2018-06-25T07:05:36.075Z,17.07
2018-06-25T07:06:36.056Z,16.98
2018-06-25T07:07:36.040Z,16.89
2018-06-25T07:08:36.021Z,16.92
2018-06-25T07:09:36.003Z,16.93
2018-06-25T07:10:35.985Z,16.89
2018-06-25T07:11:35.968Z,17.06
2018-06-25T07:12:35.950Z,16.95
2018-06-25T07:13:35.932Z,17.04
2018-06-25T07:14:35.936Z,16.98
2018-06-25T07:15:35.898Z,17.11
2018-06-25T07:16:35.881Z,17.20
2018-06-25T07:17:35.862Z,17.11
2018-06-25T07:18:35.846Z,17.29
2018-06-25T07:19:35.828Z,17.36
2018-06-25T07:20:35.815Z,17.32
2018-06-25T07:21:35.794Z,17.51
2018-06-25T07:22:36.526Z,17.54
2018-06-25T07:23:35.759Z,17.51
2018-06-25T07:24:35.740Z,17.50
2018-06-25T07:25:35.724Z,17.41
2018-06-25T07:26:35.707Z,17.33
2018-06-25T07:27:35.688Z,17.17
2018-06-25T07:28:35.675Z,17.13
2018-06-25T07:29:35.653Z,17.15
2018-06-25T07:30:35.636Z,17.14
2018-06-25T07:31:35.619Z,17.23
2018-06-25T07:32:35.602Z,17.35
2018-06-25T07:33:35.588Z,17.36
2018-06-25T07:34:35.570Z,17.55
2018-06-25T07:35:35.551Z,17.46
2018-06-25T07:36:35.532Z,17.28
2018-06-25T07:37:35.515Z,17.35
2018-06-25T07:38:36.249Z,17.35
2018-06-25T07:39:35.484Z,17.40
2018-06-25T07:40:35.466Z,17.51
2018-06-25T07:41:35.465Z,17.70
2018-06-25T07:42:35.430Z,17.74
2018-06-25T07:43:35.413Z,17.79
2018-06-25T07:44:35.395Z,17.64
2018-06-25T07:45:35.380Z,17.62
2018-06-25T07:46:35.363Z,17.64
2018-06-25T07:47:35.347Z,17.81
2018-06-25T07:48:35.329Z,17.84
2018-06-25T07:49:35.312Z,17.91
2018-06-25T07:50:35.296Z,17.89
2018-06-25T07:51:35.278Z,17.88
2018-06-25T07:52:35.262Z,17.97
2018-06-25T07:53:35.273Z,17.95
2018-06-25T07:54:35.229Z,17.94
2018-06-25T07:55:35.211Z,17.91
2018-06-25T07:56:35.194Z,18.04
2018-06-25T07:57:35.186Z,18.21
2018-06-25T07:58:35.161Z,18.36
2018-06-25T07:59:35.145Z,18.40
2018-06-25T08:00:35.879Z,18.67
2018-06-25T08:01:35.112Z,18.65
2018-06-25T08:02:35.097Z,18.65
2018-06-25T08:03:35.130Z,18.47
2018-06-25T08:04:35.067Z,18.39
2018-06-25T08:05:35.048Z,18.12
2018-06-25T08:06:35.032Z,18.12
2018-06-25T08:07:35.017Z,18.00
2018-06-25T08:08:35.000Z,17.91
2018-06-25T08:09:34.985Z,17.88
2018-06-25T08:10:34.969Z,17.84
2018-06-25T08:11:34.958Z,17.82
2018-06-25T08:12:34.937Z,17.88
2018-06-25T08:13:34.920Z,17.70
2018-06-25T08:14:34.903Z,17.74
2018-06-25T08:15:34.890Z,17.64
2018-06-25T08:16:34.906Z,17.54
2018-06-25T08:17:34.861Z,17.57
2018-06-25T08:18:34.841Z,17.47
2018-06-25T08:19:34.824Z,17.40
2018-06-25T08:20:34.808Z,17.33
2018-06-25T08:21:34.792Z,17.47
2018-06-25T08:22:34.779Z,17.47
2018-06-25T08:23:34.761Z,17.63
2018-06-25T08:24:34.745Z,17.70
2018-06-25T08:25:34.728Z,17.73
2018-06-25T08:26:34.712Z,17.78
2018-06-25T08:27:34.695Z,17.88
2018-06-25T08:28:34.679Z,17.92
2018-06-25T08:29:34.663Z,17.94
2018-06-25T08:30:34.648Z,18.00
2018-06-25T08:31:34.629Z,18.13
2018-06-25T08:32:36.113Z,18.22
2018-06-25T08:33:34.597Z,18.33
2018-06-25T08:34:34.581Z,18.42
2018-06-25T08:35:34.565Z,18.37
2018-06-25T08:36:34.547Z,18.40
2018-06-25T08:37:34.534Z,18.65
2018-06-25T08:38:34.516Z,18.68
2018-06-25T08:39:34.499Z,18.59
2018-06-25T08:40:34.483Z,18.50
2018-06-25T08:41:34.468Z,18.64
2018-06-25T08:42:34.451Z,18.62
2018-06-25T08:43:34.436Z,18.62
2018-06-25T08:44:34.419Z,18.65
2018-06-25T08:45:34.411Z,18.49
2018-06-25T08:46:34.387Z,18.44
2018-06-25T08:47:34.372Z,18.36
2018-06-25T08:48:34.355Z,18.22
2018-06-25T08:49:35.092Z,18.21
2018-06-25T08:50:34.323Z,18.31
2018-06-25T08:51:34.353Z,18.43
2018-06-25T08:52:34.291Z,18.44
2018-06-25T08:53:34.275Z,18.57
2018-06-25T08:54:34.259Z,18.67
2018-06-25T08:55:34.244Z,18.62
2018-06-25T08:56:34.228Z,18.54
2018-06-25T08:57:34.212Z,18.52
2018-06-25T08:58:34.196Z,18.36
2018-06-25T08:59:34.180Z,18.18
2018-06-25T09:00:34.913Z,18.19
2018-06-25T09:01:34.146Z,18.24
2018-06-25T09:02:34.131Z,17.95
2018-06-25T09:03:34.115Z,18.03
2018-06-25T09:04:34.098Z,18.00
2018-06-25T09:05:34.082Z,17.97
2018-06-25T09:06:34.067Z,17.91
2018-06-25T09:07:34.050Z,17.97
2018-06-25T09:08:34.034Z,18.07
2018-06-25T09:09:34.027Z,18.09
2018-06-25T09:10:34.003Z,18.19
2018-06-25T09:11:33.985Z,18.15
2018-06-25T09:12:33.969Z,18.22
2018-06-25T09:13:33.956Z,18.12
2018-06-25T09:14:33.937Z,18.27
2018-06-25T09:15:33.995Z,18.03
2018-06-25T09:16:33.903Z,17.87
2018-06-25T09:17:33.888Z,17.88
2018-06-25T09:18:33.870Z,17.99
2018-06-25T09:19:33.855Z,18.15
2018-06-25T09:20:33.838Z,18.27
2018-06-25T09:21:33.822Z,18.28
2018-06-25T09:22:33.805Z,18.31
2018-06-25T09:23:33.789Z,18.43
2018-06-25T09:24:33.772Z,18.33
2018-06-25T09:25:33.757Z,18.25
2018-06-25T09:26:33.741Z,18.15
2018-06-25T09:27:33.757Z,18.22
2018-06-25T09:28:33.706Z,18.31
2018-06-25T09:29:33.691Z,18.44
2018-06-25T09:30:33.674Z,18.52
2018-06-25T09:31:33.660Z,18.62
2018-06-25T09:32:33.641Z,18.67
2018-06-25T09:33:33.625Z,18.70
2018-06-25T09:34:33.610Z,18.72
2018-06-25T09:35:33.595Z,18.40
2018-06-25T09:36:33.577Z,18.34
2018-06-25T09:37:33.562Z,18.49
2018-06-25T09:38:33.544Z,18.61
2018-06-25T09:39:33.529Z,18.74
2018-06-25T09:40:33.511Z,19.08
2018-06-25T09:41:33.657Z,19.32
2018-06-25T09:42:33.482Z,19.47
2018-06-25T09:43:33.465Z,19.42
2018-06-25T09:44:33.447Z,19.53
2018-06-25T09:45:33.432Z,19.60
2018-06-25T09:46:33.420Z,19.61
2018-06-25T09:47:33.402Z,19.58
2018-06-25T09:48:34.135Z,19.33
2018-06-25T09:49:33.369Z,19.24
2018-06-25T09:50:33.357Z,19.42
2018-06-25T09:51:33.339Z,19.58
2018-06-25T09:52:33.324Z,19.53
2018-06-25T09:53:33.309Z,19.60
2018-06-25T09:54:33.292Z,19.68
2018-06-25T09:55:33.278Z,19.72
2018-06-25T09:56:33.261Z,19.39
2018-06-25T09:57:33.246Z,19.39
2018-06-25T09:58:33.230Z,19.32
2018-06-25T09:59:38.471Z,19.36
2018-06-25T10:00:33.199Z,19.29
2018-06-25T10:01:33.184Z,19.53
2018-06-25T10:02:33.170Z,19.75
2018-06-25T10:03:33.164Z,19.94
2018-06-25T10:04:33.139Z,20.34
2018-06-25T10:05:33.874Z,20.24
2018-06-25T10:06:33.110Z,20.31
2018-06-25T10:07:33.095Z,20.30
2018-06-25T10:08:33.079Z,20.20
2018-06-25T10:09:33.063Z,20.31
2018-06-25T10:10:33.071Z,20.33
2018-06-25T10:11:33.034Z,20.21
2018-06-25T10:12:33.019Z,20.12
2018-06-25T10:13:33.007Z,20.03
2018-06-25T10:14:32.991Z,19.94
2018-06-25T10:15:32.974Z,19.97
2018-06-25T10:16:32.964Z,19.98
2018-06-25T10:17:32.944Z,20.00
2018-06-25T10:18:32.979Z,20.08
2018-06-25T10:19:32.914Z,20.28
2018-06-25T10:20:32.898Z,20.50
2018-06-25T10:21:32.885Z,20.50
2018-06-25T10:22:32.871Z,20.10
2018-06-25T10:23:32.855Z,19.94
2018-06-25T10:24:32.840Z,19.94
2018-06-25T10:25:32.826Z,19.83
2018-06-25T10:26:32.809Z,19.73
2018-06-25T10:27:32.795Z,19.60
2018-06-25T10:28:32.857Z,19.51
2018-06-25T10:29:32.765Z,19.50
2018-06-25T10:30:32.751Z,19.51
2018-06-25T10:31:32.736Z,19.66
2018-06-25T10:32:32.724Z,19.60
2018-06-25T10:33:32.704Z,19.57
2018-06-25T10:34:32.689Z,19.69
2018-06-25T10:35:32.674Z,19.97
2018-06-25T10:36:32.659Z,20.06
2018-06-25T10:37:32.646Z,20.16
2018-06-25T10:38:32.629Z,20.34
2018-06-25T10:39:32.612Z,20.34
2018-06-25T10:40:32.597Z,20.42
2018-06-25T10:41:32.583Z,20.31
2018-06-25T10:42:32.611Z,20.18
2018-06-25T10:43:33.303Z,20.05
2018-06-25T10:44:32.537Z,20.13
2018-06-25T10:45:32.524Z,20.08
2018-06-25T10:46:32.508Z,19.97
2018-06-25T10:47:32.494Z,20.08
2018-06-25T10:48:32.481Z,19.87
2018-06-25T10:49:32.463Z,19.86
2018-06-25T10:50:32.462Z,19.83
2018-06-25T10:51:32.433Z,20.00
2018-06-25T10:52:32.418Z,20.02
2018-06-25T10:53:32.403Z,20.27
2018-06-25T10:54:36.144Z,20.53
2018-06-25T10:55:32.378Z,20.49
2018-06-25T10:56:32.358Z,20.74
2018-06-25T10:57:32.343Z,20.72
2018-06-25T10:58:32.330Z,20.81
2018-06-25T10:59:32.484Z,21.05
2018-06-25T11:00:33.800Z,21.30
2018-06-25T11:01:32.286Z,21.61
2018-06-25T11:02:32.272Z,21.85
2018-06-25T11:03:32.258Z,21.91
2018-06-25T11:04:32.240Z,21.74
2018-06-25T11:05:32.227Z,21.45
2018-06-25T11:06:32.963Z,21.30
2018-06-25T11:07:32.211Z,21.27
2018-06-25T11:08:32.182Z,21.35
2018-06-25T11:09:32.170Z,21.44
2018-06-25T11:10:32.156Z,21.50
2018-06-25T11:11:32.141Z,21.53
2018-06-25T11:12:32.126Z,21.42
2018-06-25T11:13:32.145Z,21.41
2018-06-25T11:14:32.098Z,21.64
2018-06-25T11:15:32.085Z,21.48
2018-06-25T11:16:32.069Z,21.38
2018-06-25T11:17:32.057Z,21.04
2018-06-25T11:18:32.042Z,20.81
2018-06-25T11:19:32.031Z,20.66
2018-06-25T11:20:32.013Z,20.62
2018-06-25T11:21:31.999Z,20.61
2018-06-25T11:22:31.987Z,20.54
2018-06-25T11:23:31.970Z,20.59
2018-06-25T11:24:31.955Z,20.58
2018-06-25T11:25:31.940Z,20.64
2018-06-25T11:26:31.926Z,20.47
2018-06-25T11:27:32.026Z,20.38
2018-06-25T11:28:31.900Z,20.50
2018-06-25T11:29:31.883Z,20.68
2018-06-25T11:30:31.869Z,20.68
2018-06-25T11:31:31.854Z,21.02
2018-06-25T11:32:31.840Z,21.21
2018-06-25T11:33:31.826Z,21.30
2018-06-25T11:34:31.839Z,21.53
2018-06-25T11:35:31.798Z,21.39
2018-06-25T11:36:31.783Z,20.98
2018-06-25T11:37:31.768Z,20.71
2018-06-25T11:38:31.755Z,20.62
2018-06-25T11:39:31.741Z,20.72
2018-06-25T11:40:31.725Z,21.01
2018-06-25T11:41:31.715Z,21.16
2018-06-25T11:42:31.698Z,21.21
2018-06-25T11:43:31.684Z,21.29
2018-06-25T11:44:31.669Z,21.26
2018-06-25T11:45:31.656Z,21.41
2018-06-25T11:46:31.643Z,21.44
2018-06-25T11:47:31.631Z,21.78
2018-06-25T11:48:32.365Z,21.82
2018-06-25T11:49:31.601Z,21.88
2018-06-25T11:50:31.587Z,21.76
2018-06-25T11:51:31.578Z,21.71
2018-06-25T11:52:31.562Z,21.69
2018-06-25T11:53:31.547Z,21.38
2018-06-25T11:54:31.534Z,21.42
2018-06-25T11:55:31.522Z,21.24
2018-06-25T11:56:31.508Z,21.08
2018-06-25T11:57:31.495Z,20.83
2018-06-25T11:58:31.482Z,20.69
2018-06-25T11:59:31.469Z,20.86
2018-06-25T12:00:31.455Z,21.14
2018-06-25T12:01:31.442Z,21.20
2018-06-25T12:02:31.545Z,21.08
2018-06-25T12:03:31.416Z,21.24
2018-06-25T12:04:31.401Z,21.13
2018-06-25T12:05:31.387Z,21.01
2018-06-25T12:06:31.373Z,20.79
2018-06-25T12:07:31.362Z,20.83
2018-06-25T12:08:31.346Z,20.80
2018-06-25T12:09:31.334Z,21.01
2018-06-25T12:10:31.376Z,21.05
2018-06-25T12:11:31.307Z,21.30
2018-06-25T12:12:31.360Z,21.64
2018-06-25T12:13:31.281Z,21.60
2018-06-25T12:14:31.268Z,21.35
2018-06-25T12:15:31.254Z,21.05
2018-06-25T12:16:31.240Z,21.06
2018-06-25T12:17:31.233Z,21.02
2018-06-25T12:18:31.213Z,21.08
2018-06-25T12:19:31.201Z,21.23
2018-06-25T12:20:31.186Z,21.38
2018-06-25T12:21:31.173Z,21.61
2018-06-25T12:22:31.161Z,21.51
2018-06-25T12:23:31.149Z,21.26
2018-06-25T12:24:31.132Z,21.39
2018-06-25T12:25:31.140Z,21.42
2018-06-25T12:26:31.106Z,21.17
2018-06-25T12:27:31.093Z,20.83
2018-06-25T12:28:31.080Z,20.64
2018-06-25T12:29:31.066Z,20.62
2018-06-25T12:30:31.053Z,20.68
2018-06-25T12:31:31.043Z,20.91
2018-06-25T12:32:31.027Z,21.06
2018-06-25T12:33:31.013Z,21.11
2018-06-25T12:34:31.000Z,20.99
2018-06-25T12:35:30.986Z,20.99
2018-06-25T12:36:30.971Z,21.02
2018-06-25T12:37:30.958Z,21.26
2018-06-25T12:38:30.946Z,21.75
2018-06-25T12:39:30.933Z,21.82
2018-06-25T12:40:30.917Z,21.71
2018-06-25T12:41:30.928Z,21.78
2018-06-25T12:42:30.891Z,21.78
2018-06-25T12:43:30.878Z,21.42
2018-06-25T12:44:30.862Z,21.36
2018-06-25T12:45:30.849Z,21.30
2018-06-25T12:46:30.835Z,21.27
2018-06-25T12:47:30.821Z,21.23
2018-06-25T12:48:30.806Z,21.24
2018-06-25T12:49:30.800Z,21.29
2018-06-25T12:50:30.780Z,21.19
2018-06-25T12:51:30.765Z,21.26
2018-06-25T12:52:30.750Z,21.57